Fort Dodge, Kansas
Current Conditions -  °F | °C
As of 12:52 PM on Thursday 30 Oct 2014 (Local Time) from KDDC Reporting Station
Clear Clear  
Wind Chill: 67°   Ceiling: Unl
Heat Index: 67°   Visibility: 10mi
Dew Point: 32°   Wind: 18mph
Humidity: 27%   Direction: 360°N
Pressure: 30.26"   Gusts: 25mph
Location:  37.73°N, 99.94°W
Report Text: KDDC 301752Z AUTO 36016G22KT 10SM CLR 19/00 A3026 RMK AO2 SLP234 T01940000 10200 20067 50006
Loading
Personal Weather Stations






























Interactive Weather Map
Tropical Storm Tracking
New forecast layout! Learn more

10-Day Weather Forecast

Advertisements
Track Severe Weather on mobile